createdAt,value
2019-05-03T00:02:26.160Z,35.87
2019-05-03T00:05:12.603Z,33.73
2019-05-03T00:07:44.773Z,36.63
2019-05-03T00:10:16.830Z,34.90
2019-05-03T00:12:48.800Z,36.43
2019-05-03T00:15:34.390Z,34.00
2019-05-03T00:18:06.324Z,37.07
2019-05-03T00:20:38.304Z,33.13
2019-05-03T00:23:12.011Z,34.90
2019-05-03T00:25:44.178Z,35.40
2019-05-03T00:28:16.116Z,33.80
2019-05-03T00:30:48.095Z,35.63
2019-05-03T00:33:20.050Z,34.13
2019-05-03T00:36:11.727Z,32.50
2019-05-03T00:38:43.652Z,34.20
2019-05-03T00:41:15.602Z,32.77
2019-05-03T00:43:47.544Z,33.53
2019-05-03T00:46:19.538Z,34.77
2019-05-03T00:48:52.481Z,33.77
2019-05-03T00:51:24.545Z,32.53
2019-05-03T00:53:56.494Z,30.50
2019-05-03T00:56:28.454Z,30.70
2019-05-03T00:59:02.165Z,33.80
2019-05-03T01:01:34.253Z,32.60
2019-05-03T01:04:06.186Z,31.10
2019-05-03T01:06:38.173Z,30.77
2019-05-03T01:09:16.532Z,31.43
2019-05-03T01:11:48.490Z,29.40
2019-05-03T01:14:22.228Z,31.63
2019-05-03T01:16:54.330Z,30.43
2019-05-03T01:19:26.261Z,31.33
2019-05-03T01:21:58.250Z,31.33
2019-05-03T01:24:32.127Z,31.40
2019-05-03T01:27:04.169Z,30.73
2019-05-03T01:29:36.111Z,30.17
2019-05-03T01:32:08.084Z,30.90
2019-05-03T01:34:41.654Z,30.53
2019-05-03T01:37:13.738Z,30.70
2019-05-03T01:39:45.778Z,31.60
2019-05-03T01:42:17.736Z,30.57
2019-05-03T01:44:49.677Z,29.80
2019-05-03T01:47:29.462Z,32.97
2019-05-03T01:50:15.644Z,33.23
2019-05-03T01:52:48.642Z,32.33
2019-05-03T01:55:22.696Z,31.07
2019-05-03T01:57:54.691Z,31.20
2019-05-03T02:00:28.556Z,33.20
2019-05-03T02:03:06.629Z,34.53
2019-05-03T02:05:48.290Z,33.07
2019-05-03T02:08:22.032Z,33.60
2019-05-03T02:10:54.101Z,34.00
2019-05-03T02:13:26.070Z,34.87
2019-05-03T02:15:58.004Z,33.23
2019-05-03T02:18:31.852Z,33.97
2019-05-03T02:21:03.862Z,34.00
2019-05-03T02:23:35.888Z,32.63
2019-05-03T02:26:07.837Z,34.67
2019-05-03T02:28:42.015Z,34.67
2019-05-03T02:31:13.950Z,33.83
2019-05-03T02:33:45.911Z,32.37
2019-05-03T02:36:17.884Z,32.77
2019-05-03T02:38:49.842Z,31.27
2019-05-03T02:41:22.687Z,34.07
2019-05-03T02:43:56.077Z,34.23
2019-05-03T02:46:50.644Z,34.10
2019-05-03T02:49:35.459Z,33.80
2019-05-03T02:52:09.283Z,35.77
2019-05-03T02:54:41.263Z,36.00
2019-05-03T02:57:15.030Z,36.10
2019-05-03T02:59:49.838Z,33.80
2019-05-03T03:02:20.905Z,35.30
2019-05-03T03:04:52.876Z,35.20
2019-05-03T03:07:26.103Z,34.83
2019-05-03T03:09:59.230Z,37.23
2019-05-03T03:12:35.395Z,34.03
2019-05-03T03:15:06.456Z,37.70
2019-05-03T03:17:40.165Z,38.67
2019-05-03T03:20:12.761Z,37.43
2019-05-03T03:25:36.152Z,36.97
2019-05-03T03:28:09.367Z,38.20
2019-05-03T03:31:29.091Z,36.53
2019-05-03T03:34:08.309Z,38.03
2019-05-03T03:36:59.637Z,37.23
2019-05-03T03:39:21.835Z,36.13
2019-05-03T03:41:55.763Z,37.00
2019-05-03T03:44:28.060Z,39.53
2019-05-03T03:47:00.073Z,36.70
2019-05-03T03:49:35.433Z,34.67
2019-05-03T03:52:07.237Z,36.00
2019-05-03T03:54:40.973Z,37.63
2019-05-03T03:57:15.972Z,34.70
2019-05-03T03:59:48.394Z,37.33
2019-05-03T04:02:20.380Z,37.23
2019-05-03T04:04:52.317Z,38.43
2019-05-03T04:07:26.157Z,36.57
2019-05-03T04:09:58.325Z,35.03
2019-05-03T04:12:30.281Z,36.77
2019-05-03T04:15:28.604Z,35.10
2019-05-03T04:18:32.515Z,37.67
2019-05-03T04:21:05.566Z,36.20
2019-05-03T04:23:37.755Z,35.70
2019-05-03T04:26:09.708Z,34.93
2019-05-03T04:28:41.725Z,37.23
2019-05-03T04:31:15.224Z,35.23
2019-05-03T04:33:47.518Z,35.90
2019-05-03T04:36:19.451Z,32.97
2019-05-03T04:38:51.439Z,36.67
2019-05-03T04:41:26.621Z,35.57
2019-05-03T04:43:57.236Z,35.23
2019-05-03T04:46:29.207Z,32.57
2019-05-03T04:49:01.171Z,33.03
2019-05-03T04:51:35.067Z,35.93
2019-05-03T04:54:25.473Z,33.10
2019-05-03T04:56:57.954Z,33.43
2019-05-03T04:59:30.026Z,33.33
2019-05-03T05:02:01.968Z,35.07
2019-05-03T05:04:35.697Z,32.97
2019-05-03T05:07:07.811Z,34.93
2019-05-03T05:09:39.742Z,35.60
2019-05-03T05:12:11.685Z,35.87
2019-05-03T05:14:45.732Z,34.80
2019-05-03T05:17:26.854Z,34.60
2019-05-03T05:20:08.157Z,36.07
2019-05-03T05:22:40.127Z,33.70
2019-05-03T05:25:15.972Z,36.03
2019-05-03T05:28:10.859Z,35.20
2019-05-03T05:30:44.455Z,33.10
2019-05-03T05:33:19.841Z,33.60
2019-05-03T05:35:51.906Z,32.70
2019-05-03T05:38:25.588Z,31.30
2019-05-03T05:40:57.778Z,34.40
2019-05-03T05:43:29.714Z,33.13
2019-05-03T05:46:01.665Z,31.87
2019-05-03T05:48:45.315Z,32.33
2019-05-03T05:51:17.282Z,30.63
2019-05-03T05:53:49.251Z,32.67
2019-05-03T05:56:46.884Z,31.23
2019-05-03T05:59:27.205Z,32.63
2019-05-03T06:02:04.706Z,31.30
2019-05-03T06:04:36.390Z,33.03
2019-05-03T06:07:44.345Z,33.40
2019-05-03T06:10:31.624Z,31.87
2019-05-03T06:13:16.999Z,32.43
2019-05-03T06:15:54.801Z,31.13
2019-05-03T06:18:32.713Z,32.73
2019-05-03T06:21:12.363Z,32.17
2019-05-03T06:23:50.768Z,32.37
2019-05-03T06:26:48.606Z,32.20
2019-05-03T06:29:20.553Z,32.13
2019-05-03T06:32:00.561Z,32.00
2019-05-03T06:34:32.517Z,34.33
2019-05-03T06:37:08.492Z,32.40
2019-05-03T06:39:40.488Z,30.93
2019-05-03T06:42:17.494Z,31.73
2019-05-03T06:44:46.289Z,29.77
2019-05-03T06:47:18.235Z,27.30
2019-05-03T06:49:50.212Z,27.33
2019-05-03T06:52:27.635Z,25.93
2019-05-03T06:55:00.300Z,24.27
2019-05-03T06:57:29.995Z,24.13
2019-05-03T07:00:20.580Z,24.20
2019-05-03T07:03:17.912Z,23.53
2019-05-03T07:06:08.075Z,24.50
2019-05-03T07:08:52.253Z,25.43
2019-05-03T07:11:24.777Z,24.33
2019-05-03T07:13:56.880Z,23.20
2019-05-03T07:16:28.815Z,23.13
2019-05-03T07:19:00.777Z,21.63
2019-05-03T07:21:32.710Z,21.63
2019-05-03T07:24:05.449Z,22.57
2019-05-03T07:26:37.460Z,21.13
2019-05-03T07:29:09.446Z,22.53
2019-05-03T07:31:41.456Z,25.47
2019-05-03T07:34:15.425Z,22.47
2019-05-03T07:36:47.263Z,20.73
2019-05-03T07:39:19.230Z,21.33
2019-05-03T07:41:51.185Z,19.83
2019-05-03T07:44:25.331Z,18.97
2019-05-03T07:46:57.237Z,19.67
2019-05-03T07:49:29.178Z,20.80
2019-05-03T07:52:01.147Z,20.27
2019-05-03T07:54:34.875Z,22.60
2019-05-03T07:57:26.742Z,22.23
2019-05-03T07:59:58.702Z,21.00
2019-05-03T08:02:30.650Z,22.77
2019-05-03T08:05:02.873Z,22.83
2019-05-03T08:07:35.641Z,22.23
2019-05-03T08:10:07.704Z,21.60
2019-05-03T08:12:39.658Z,20.13
2019-05-03T08:15:11.994Z,19.00
2019-05-03T08:17:44.991Z,19.30
2019-05-03T08:20:17.031Z,20.13
2019-05-03T08:22:49.204Z,14.27
2019-05-03T08:25:21.154Z,12.43
2019-05-03T08:27:54.841Z,13.27
2019-05-03T08:30:35.435Z,13.77
2019-05-03T08:33:15.737Z,15.17
2019-05-03T08:35:48.303Z,12.93
2019-05-03T08:38:20.256Z,11.40
2019-05-03T08:40:54.773Z,13.60
2019-05-03T08:43:26.909Z,12.97
2019-05-03T08:45:58.872Z,12.70
2019-05-03T08:48:30.881Z,12.77
2019-05-03T08:51:04.519Z,11.83
2019-05-03T08:53:36.769Z,11.73
2019-05-03T08:56:08.806Z,11.80
2019-05-03T08:58:40.799Z,12.23
2019-05-03T09:01:14.734Z,11.83
2019-05-03T09:03:46.674Z,13.50
2019-05-03T09:06:18.687Z,14.70
2019-05-03T09:08:54.104Z,14.70
2019-05-03T09:11:31.833Z,13.37
2019-05-03T09:14:01.325Z,13.63
2019-05-03T09:16:35.445Z,13.97
2019-05-03T09:19:07.196Z,14.10
2019-05-03T09:21:39.218Z,14.03
2019-05-03T09:24:11.216Z,14.70
2019-05-03T09:26:44.900Z,16.73
2019-05-03T09:29:17.088Z,16.40
2019-05-03T09:31:49.079Z,17.27
2019-05-03T09:34:21.053Z,17.13
2019-05-03T09:36:55.206Z,17.40
2019-05-03T09:39:26.930Z,17.77
2019-05-03T09:41:58.912Z,16.83
2019-05-03T09:44:30.910Z,17.37
2019-05-03T09:47:02.930Z,16.93
2019-05-03T09:49:35.007Z,15.50
2019-05-03T09:52:08.437Z,16.57
2019-05-03T09:54:46.315Z,14.30
2019-05-03T09:57:18.284Z,13.37
2019-05-03T09:59:57.082Z,12.87
2019-05-03T10:02:24.664Z,12.27
2019-05-03T10:04:56.804Z,11.97
2019-05-03T10:07:28.796Z,12.57
2019-05-03T10:10:00.759Z,11.53
2019-05-03T10:12:32.746Z,11.23
2019-05-03T10:15:06.492Z,10.50
2019-05-03T10:17:45.841Z,10.07
2019-05-03T10:20:18.763Z,10.43
2019-05-03T10:22:50.744Z,9.50
2019-05-03T10:25:24.371Z,10.10
2019-05-03T10:27:56.626Z,10.20
2019-05-03T10:30:28.615Z,10.57
2019-05-03T10:33:06.923Z,10.23
2019-05-03T10:35:38.891Z,10.40
2019-05-03T10:38:10.884Z,10.03
2019-05-03T10:40:45.087Z,10.00
2019-05-03T10:43:16.761Z,10.13
2019-05-03T10:45:48.761Z,11.50
2019-05-03T10:48:20.749Z,10.20
2019-05-03T10:50:52.781Z,10.00
2019-05-03T10:53:29.970Z,10.23
2019-05-03T10:56:23.316Z,9.93
2019-05-03T10:58:55.541Z,9.33
2019-05-03T11:01:38.256Z,9.77
2019-05-03T11:04:10.293Z,9.90
2019-05-03T11:06:42.276Z,9.70
2019-05-03T11:09:15.337Z,9.43
2019-05-03T11:11:47.497Z,9.83
2019-05-03T11:14:19.478Z,9.37
2019-05-03T11:16:51.530Z,9.35
2019-05-03T11:19:25.452Z,8.90
2019-05-03T11:21:57.524Z,8.97
2019-05-03T11:24:29.575Z,9.00
2019-05-03T11:27:04.184Z,8.57
2019-05-03T11:29:36.182Z,9.30
2019-05-03T11:32:15.025Z,8.47
2019-05-03T11:35:06.624Z,9.03
2019-05-03T11:37:47.222Z,10.07
2019-05-03T11:40:19.443Z,9.97
2019-05-03T11:42:55.251Z,9.23
2019-05-03T11:45:27.037Z,9.90
2019-05-03T11:47:59.056Z,9.20
2019-05-03T11:50:31.124Z,9.95
2019-05-03T11:53:04.954Z,10.40
2019-05-03T11:55:37.041Z,9.80
2019-05-03T11:58:20.808Z,9.40
2019-05-03T12:01:19.704Z,9.47
2019-05-03T12:03:51.159Z,9.77
2019-05-03T12:06:24.934Z,9.23
2019-05-03T12:08:57.032Z,8.93
2019-05-03T12:11:30.974Z,9.23
2019-05-03T12:14:12.711Z,9.43
2019-05-03T12:17:16.554Z,9.00
2019-05-03T12:19:34.369Z,8.80
2019-05-03T12:22:07.565Z,8.43
2019-05-03T12:24:40.334Z,8.00
2019-05-03T12:27:14.935Z,7.60
2019-05-03T12:29:46.825Z,7.10
2019-05-03T12:32:19.022Z,6.83
2019-05-03T12:34:51.010Z,7.13
2019-05-03T12:37:24.463Z,7.23
2019-05-03T12:39:56.528Z,6.50
2019-05-03T12:42:28.577Z,6.20
2019-05-03T12:45:00.588Z,7.03
2019-05-03T12:47:34.593Z,6.97
2019-05-03T12:50:06.726Z,6.80
2019-05-03T12:52:49.267Z,6.20
2019-05-03T12:55:12.684Z,5.87
2019-05-03T12:57:45.809Z,5.97
2019-05-03T13:00:35.954Z,6.30
2019-05-03T13:03:15.219Z,6.35
2019-05-03T13:05:47.488Z,5.70
2019-05-03T13:08:38.928Z,6.28
2019-05-03T13:11:10.900Z,7.30
2019-05-03T13:13:45.044Z,6.90
2019-05-03T13:16:19.167Z,6.57
2019-05-03T13:18:51.202Z,6.42
2019-05-03T13:21:25.116Z,7.00
2019-05-03T13:23:57.129Z,6.37
2019-05-03T13:26:29.135Z,6.60
2019-05-03T13:29:01.107Z,7.50
2019-05-03T13:31:34.693Z,6.80
2019-05-03T13:34:06.843Z,6.27
2019-05-03T13:36:38.816Z,7.00
2019-05-03T13:39:14.438Z,7.10
2019-05-03T13:41:45.507Z,7.53
2019-05-03T13:44:17.782Z,8.10
2019-05-03T13:46:49.813Z,7.67
2019-05-03T13:49:21.834Z,7.00
2019-05-03T13:51:53.817Z,8.55
2019-05-03T13:54:25.841Z,7.42
2019-05-03T13:56:57.815Z,7.42
2019-05-03T13:59:29.830Z,7.40
2019-05-03T14:02:12.374Z,7.83
2019-05-03T14:04:49.135Z,8.90
2019-05-03T14:07:09.741Z,8.40
2019-05-03T14:09:41.771Z,7.50
2019-05-03T14:12:15.452Z,7.37
2019-05-03T14:14:55.965Z,6.62
2019-05-03T14:17:28.649Z,6.30
2019-05-03T14:20:14.639Z,6.00
2019-05-03T14:22:47.537Z,6.37
2019-05-03T14:25:19.545Z,6.60
2019-05-03T14:27:51.497Z,6.83
2019-05-03T14:30:25.284Z,6.22
2019-05-03T14:32:57.399Z,5.58
2019-05-03T14:35:29.415Z,5.55
2019-05-03T14:38:01.470Z,6.17
2019-05-03T14:40:33.577Z,5.90
2019-05-03T14:43:05.629Z,6.20
2019-05-03T14:45:37.708Z,5.67
2019-05-03T14:48:09.719Z,5.67
2019-05-03T14:50:41.756Z,4.92
2019-05-03T14:53:14.764Z,5.70
2019-05-03T14:55:52.503Z,5.90
2019-05-03T14:58:45.669Z,5.40
2019-05-03T15:01:25.289Z,5.33
2019-05-03T15:03:57.309Z,5.25
2019-05-03T15:06:29.345Z,5.60
2019-05-03T15:09:01.332Z,4.95
2019-05-03T15:11:34.534Z,5.95
2019-05-03T15:14:06.668Z,4.95
2019-05-03T15:16:38.673Z,5.22
2019-05-03T15:19:10.739Z,5.40
2019-05-03T15:21:42.763Z,4.65
2019-05-03T15:24:14.883Z,4.55
2019-05-03T15:26:46.901Z,6.12
2019-05-03T15:29:18.965Z,6.15
2019-05-03T15:31:51.074Z,7.28
2019-05-03T15:34:23.064Z,6.08
2019-05-03T15:36:55.072Z,5.05
2019-05-03T15:39:27.112Z,5.12
2019-05-03T15:41:59.125Z,5.65
2019-05-03T15:44:59.602Z,6.25
2019-05-03T15:47:35.993Z,5.73
2019-05-03T15:50:08.123Z,6.00
2019-05-03T15:52:40.164Z,5.50
2019-05-03T15:55:12.212Z,5.28
2019-05-03T15:57:44.696Z,5.08
2019-05-03T16:00:17.730Z,6.47
2019-05-03T16:02:49.759Z,6.55
2019-05-03T16:05:21.766Z,6.42
2019-05-03T16:07:55.323Z,6.50
2019-05-03T16:10:27.516Z,6.05
2019-05-03T16:12:59.539Z,6.20
2019-05-03T16:15:31.542Z,6.62
2019-05-03T16:18:05.134Z,5.78
2019-05-03T16:20:39.443Z,5.80
2019-05-03T16:23:11.317Z,5.57
2019-05-03T16:25:44.844Z,6.15
2019-05-03T16:28:35.525Z,5.20
2019-05-03T16:31:10.271Z,5.10
2019-05-03T16:33:42.242Z,4.97
2019-05-03T16:36:14.869Z,5.80
2019-05-03T16:38:47.350Z,4.85
2019-05-03T16:41:19.395Z,5.53
2019-05-03T16:43:51.417Z,4.70
2019-05-03T16:46:23.484Z,5.15
2019-05-03T16:48:55.554Z,6.90
2019-05-03T16:51:27.599Z,9.38
2019-05-03T16:53:59.639Z,8.83
2019-05-03T16:56:31.696Z,8.08
2019-05-03T16:59:05.669Z,7.17
2019-05-03T17:01:37.655Z,28.73
2019-05-03T17:04:27.707Z,8.40
2019-05-03T17:07:06.985Z,7.35
2019-05-03T17:09:46.477Z,7.47
2019-05-03T17:12:25.515Z,7.80
2019-05-03T17:14:57.758Z,7.00
2019-05-03T17:17:29.777Z,5.43
2019-05-03T17:20:01.900Z,5.70
2019-05-03T17:22:34.523Z,5.50
2019-05-03T17:25:06.759Z,4.87
2019-05-03T17:27:38.830Z,4.97
2019-05-03T17:30:10.969Z,4.10
2019-05-03T17:32:44.557Z,4.77
2019-05-03T17:35:16.790Z,4.43
2019-05-03T17:37:48.790Z,4.20
2019-05-03T17:40:52.354Z,3.97
2019-05-03T17:43:34.617Z,4.30
2019-05-03T17:46:07.306Z,4.70
2019-05-03T17:48:39.307Z,4.30
2019-05-03T17:51:30.978Z,3.80
2019-05-03T17:54:14.550Z,4.03
2019-05-03T17:56:58.851Z,4.00
2019-05-03T17:59:36.151Z,4.30
2019-05-03T18:02:25.499Z,4.00
2019-05-03T18:05:17.136Z,3.90
2019-05-03T18:08:17.949Z,4.53
2019-05-03T18:11:11.570Z,51.13
2019-05-03T18:13:44.674Z,28.27
2019-05-03T18:16:16.800Z,16.17
2019-05-03T18:18:48.845Z,19.33
2019-05-03T18:21:20.861Z,26.63
2019-05-03T18:23:54.553Z,12.70
2019-05-03T18:26:26.836Z,12.57
2019-05-03T18:28:58.960Z,7.43
2019-05-03T18:31:31.005Z,5.43
2019-05-03T18:34:05.031Z,5.73
2019-05-03T18:36:36.928Z,26.07
2019-05-03T18:39:09.585Z,25.17
2019-05-03T18:41:41.617Z,14.10
2019-05-03T18:44:34.590Z,7.07
2019-05-03T18:47:09.044Z,5.20
2019-05-03T18:49:41.124Z,4.83
2019-05-03T18:52:14.936Z,4.60
2019-05-03T18:54:47.187Z,5.23
2019-05-03T18:57:19.171Z,5.53
2019-05-03T18:59:51.189Z,5.10
2019-05-03T19:02:24.243Z,5.70
2019-05-03T19:04:56.437Z,6.37
2019-05-03T19:07:51.528Z,5.80
2019-05-03T19:10:32.598Z,6.00
2019-05-03T19:13:12.611Z,5.67
2019-05-03T19:15:44.725Z,5.83
2019-05-03T19:18:24.646Z,5.30
2019-05-03T19:20:56.797Z,5.30
2019-05-03T19:23:28.842Z,5.60
2019-05-03T19:26:00.910Z,6.50
2019-05-03T19:28:35.255Z,14.00
2019-05-03T19:31:07.106Z,7.97
2019-05-03T19:33:39.208Z,7.37
2019-05-03T19:36:11.303Z,6.03
2019-05-03T19:38:43.349Z,6.77
2019-05-03T19:41:16.310Z,5.90
2019-05-03T19:43:48.526Z,6.20
2019-05-03T19:46:20.586Z,6.13
2019-05-03T19:48:54.581Z,6.07
2019-05-03T19:51:26.625Z,6.03
2019-05-03T19:53:58.629Z,5.87
2019-05-03T19:56:30.689Z,5.57
2019-05-03T19:59:06.576Z,5.60
2019-05-03T20:02:00.869Z,5.37
2019-05-03T20:04:57.595Z,6.00
2019-05-03T20:07:34.705Z,5.20
2019-05-03T20:10:07.269Z,5.00
2019-05-03T20:12:39.330Z,5.37
2019-05-03T20:15:11.400Z,5.07
2019-05-03T20:17:54.689Z,4.83
2019-05-03T20:20:17.399Z,5.03
2019-05-03T20:22:49.446Z,5.27
2019-05-03T20:25:21.468Z,5.00
2019-05-03T20:27:53.495Z,5.63
2019-05-03T20:30:25.613Z,5.70
2019-05-03T20:32:57.639Z,5.57
2019-05-03T20:35:29.651Z,7.30
2019-05-03T20:38:01.650Z,6.90
2019-05-03T20:40:35.097Z,6.53
2019-05-03T20:43:32.879Z,6.60
2019-05-03T20:46:20.035Z,6.70
2019-05-03T20:48:53.349Z,6.37
2019-05-03T20:51:25.370Z,5.97
2019-05-03T20:53:57.397Z,5.97
2019-05-03T20:56:29.402Z,6.00
2019-05-03T20:59:01.442Z,6.00
2019-05-03T21:01:34.767Z,7.23
2019-05-03T21:04:06.926Z,6.73
2019-05-03T21:06:39.001Z,6.23
2019-05-03T21:09:11.061Z,5.97
2019-05-03T21:11:44.891Z,5.97
2019-05-03T21:14:17.048Z,5.77
2019-05-03T21:17:07.993Z,6.30
2019-05-03T21:19:55.181Z,5.73
2019-05-03T21:22:35.375Z,6.80
2019-05-03T21:25:12.881Z,6.47
2019-05-03T21:27:44.992Z,6.27
2019-05-03T21:30:17.001Z,6.50
2019-05-03T21:32:49.002Z,6.00
2019-05-03T21:35:21.039Z,5.57
2019-05-03T21:37:54.419Z,6.03
2019-05-03T21:40:26.548Z,6.00
2019-05-03T21:42:58.524Z,5.70
2019-05-03T21:45:37.995Z,5.90
2019-05-03T21:48:14.682Z,5.40
2019-05-03T21:50:46.767Z,6.00
2019-05-03T21:53:18.790Z,6.10
2019-05-03T21:55:50.895Z,7.03
2019-05-03T21:58:24.551Z,7.60
2019-05-03T22:01:05.067Z,8.50
2019-05-03T22:03:37.215Z,7.43
2019-05-03T22:06:09.235Z,6.70
2019-05-03T22:08:41.204Z,6.20
2019-05-03T22:11:14.814Z,6.27
2019-05-03T22:13:54.231Z,6.30
2019-05-03T22:16:45.016Z,6.20
2019-05-03T22:19:19.419Z,5.90
2019-05-03T22:21:56.794Z,6.13
2019-05-03T22:24:42.185Z,6.77
2019-05-03T22:27:18.963Z,6.40
2019-05-03T22:29:50.952Z,6.03
2019-05-03T22:32:24.500Z,6.33
2019-05-03T22:34:56.843Z,5.73
2019-05-03T22:37:28.842Z,6.07
2019-05-03T22:40:00.804Z,5.90
2019-05-03T22:42:34.571Z,6.10
2019-05-03T22:45:06.672Z,5.70
2019-05-03T22:47:38.678Z,5.97
2019-05-03T22:50:10.678Z,6.23
2019-05-03T22:52:42.850Z,5.60
2019-05-03T22:55:15.297Z,6.37
2019-05-03T22:57:47.458Z,6.47
2019-05-03T23:00:19.523Z,6.30
2019-05-03T23:02:51.525Z,6.03
2019-05-03T23:05:23.498Z,6.43
2019-05-03T23:07:55.499Z,6.83
2019-05-03T23:10:27.463Z,6.30
2019-05-03T23:12:59.464Z,6.83
2019-05-03T23:15:31.454Z,6.73
2019-05-03T23:18:04.952Z,6.60
2019-05-03T23:20:47.220Z,6.27
2019-05-03T23:23:47.870Z,6.30
2019-05-03T23:26:19.864Z,6.60
2019-05-03T23:28:51.846Z,6.20
2019-05-03T23:31:25.185Z,6.57
2019-05-03T23:33:57.389Z,7.10
2019-05-03T23:36:33.635Z,6.60
2019-05-03T23:39:05.105Z,6.00
2019-05-03T23:41:37.161Z,6.50
2019-05-03T23:44:09.182Z,6.17
2019-05-03T23:46:48.098Z,6.00
2019-05-03T23:49:20.066Z,6.03
2019-05-03T23:51:55.098Z,6.03
2019-05-03T23:54:27.179Z,6.10
2019-05-03T23:56:59.123Z,6.07
2019-05-03T23:59:31.105Z,6.13
